Terminal Aerodrome Forecast
Issued by NWS

Home | Current Version | Previous Version | Text Only | Print | Product List | Glossary On
Versions: 1 2 3 4 5 6 7 8 9 10 11 12 13 14 15 16 17 18
000
FTUS44 KJAN 150500
TAFHKS
TAF
KHKS 150530Z 1506/1606 00000KT P6SM FEW250
     FM151000 00000KT 6SM BR FEW030 SCT250
     FM151330 04003KT P6SM SCT030 BKN250
     FM152000 01006KT P6SM VCTS BKN030CB BKN050
     FM160000 04003KT P6SM SCT040 BKN250=

USA.gov is the U.S. government's official web portal to all federal, state and local government web resources and services.